createdAt,value
2022-11-08T00:01:07.054Z,5.70
2022-11-08T00:05:27.620Z,5.63
2022-11-08T00:09:48.108Z,6.50
2022-11-08T00:14:02.232Z,6.40
2022-11-08T00:18:05.735Z,5.80
2022-11-08T00:22:07.510Z,6.07
2022-11-08T00:26:09.586Z,6.03
2022-11-08T00:30:11.482Z,6.33
2022-11-08T00:34:13.225Z,6.20
2022-11-08T00:38:15.132Z,6.90
2022-11-08T00:42:16.975Z,6.60
2022-11-08T00:46:20.775Z,6.33
2022-11-08T00:50:22.432Z,7.40
2022-11-08T00:54:24.332Z,6.93
2022-11-08T00:58:27.852Z,6.47
2022-11-08T01:02:29.855Z,6.10
2022-11-08T01:06:31.836Z,6.87
2022-11-08T01:10:33.580Z,5.03
2022-11-08T01:14:35.256Z,5.00
2022-11-08T01:18:37.441Z,4.30
2022-11-08T01:22:39.133Z,4.07
2022-11-08T01:26:40.813Z,4.57
2022-11-08T01:30:44.171Z,4.80
2022-11-08T01:34:45.886Z,5.20
2022-11-08T01:38:48.170Z,5.97
2022-11-08T01:42:50.066Z,5.20
2022-11-08T01:46:51.734Z,5.30
2022-11-08T01:50:56.197Z,4.93
2022-11-08T01:55:06.903Z,5.23
2022-11-08T01:59:12.051Z,4.70
2022-11-08T02:03:17.956Z,5.20
2022-11-08T02:07:19.941Z,5.20
2022-11-08T02:11:21.770Z,5.00
2022-11-08T02:15:25.901Z,6.07
2022-11-08T02:19:44.669Z,5.83
2022-11-08T02:23:46.372Z,6.10
2022-11-08T02:27:48.105Z,6.33
2022-11-08T02:31:49.748Z,6.17
2022-11-08T02:35:56.073Z,6.30
2022-11-08T02:39:57.842Z,6.80
2022-11-08T02:43:59.575Z,6.13
2022-11-08T02:48:01.523Z,6.27
2022-11-08T02:52:04.029Z,6.80
2022-11-08T02:56:05.802Z,6.93
2022-11-08T03:00:08.205Z,6.13
2022-11-08T03:04:09.925Z,6.40
2022-11-08T03:08:11.701Z,6.87
2022-11-08T03:12:13.529Z,6.63
2022-11-08T03:16:15.325Z,6.00
2022-11-08T03:20:19.569Z,7.73
2022-11-08T03:24:21.328Z,6.40
2022-11-08T03:28:23.659Z,6.73
2022-11-08T03:32:26.664Z,6.37
2022-11-08T03:36:28.370Z,6.90
2022-11-08T03:40:30.158Z,6.17
2022-11-08T03:44:32.627Z,6.70
2022-11-08T03:48:34.285Z,6.27
2022-11-08T03:52:49.717Z,5.90
2022-11-08T03:56:51.378Z,6.27
2022-11-08T04:00:53.201Z,6.40
2022-11-08T04:04:54.988Z,5.33
2022-11-08T04:08:58.811Z,5.80
2022-11-08T04:13:20.317Z,5.13
2022-11-08T04:17:42.100Z,7.07
2022-11-08T04:21:49.267Z,7.57
2022-11-08T04:25:56.249Z,6.43
2022-11-08T04:29:57.946Z,6.30
2022-11-08T04:33:59.665Z,7.03
2022-11-08T04:38:02.418Z,7.70
2022-11-08T04:42:04.303Z,7.37
2022-11-08T04:46:08.739Z,8.47
2022-11-08T04:50:10.645Z,6.83
2022-11-08T04:54:12.412Z,6.47
2022-11-08T04:58:14.069Z,6.53
2022-11-08T05:02:15.937Z,7.53
2022-11-08T05:06:23.760Z,7.20
2022-11-08T05:10:25.448Z,6.93
2022-11-08T05:14:27.132Z,6.43
2022-11-08T05:18:29.997Z,6.30
2022-11-08T05:22:50.179Z,6.80
2022-11-08T05:26:51.824Z,6.90
2022-11-08T05:30:55.728Z,7.20
2022-11-08T05:34:57.495Z,6.67
2022-11-08T05:38:59.430Z,6.73
2022-11-08T05:43:01.207Z,7.33
2022-11-08T05:47:03.268Z,6.83
2022-11-08T05:51:05.224Z,6.80
2022-11-08T05:55:07.962Z,7.30
2022-11-08T05:59:09.754Z,8.07
2022-11-08T06:03:11.694Z,7.70
2022-11-08T06:07:13.815Z,7.20
2022-11-08T06:11:18.700Z,8.70
2022-11-08T06:15:20.729Z,8.37
2022-11-08T06:19:22.570Z,7.60
2022-11-08T06:23:24.441Z,8.20
2022-11-08T06:27:26.454Z,7.87
2022-11-08T06:31:28.121Z,8.80
2022-11-08T06:35:29.814Z,8.43
2022-11-08T06:39:31.675Z,8.90
2022-11-08T06:43:34.078Z,7.93
2022-11-08T06:47:35.741Z,8.80
2022-11-08T06:51:37.417Z,8.73
2022-11-08T06:55:39.428Z,8.90
2022-11-08T06:59:41.286Z,9.40
2022-11-08T07:03:42.971Z,9.50
2022-11-08T07:07:44.992Z,8.77
2022-11-08T07:11:46.719Z,8.40
2022-11-08T07:15:48.681Z,9.17
2022-11-08T07:19:50.836Z,9.10
2022-11-08T07:23:52.496Z,9.33
2022-11-08T07:28:02.995Z,9.07
2022-11-08T07:32:05.146Z,8.67
2022-11-08T07:36:07.057Z,9.60
2022-11-08T07:40:10.006Z,8.37
2022-11-08T07:44:11.744Z,8.37
2022-11-08T07:48:13.984Z,10.37
2022-11-08T07:52:16.048Z,8.00
2022-11-08T07:56:17.941Z,9.00
2022-11-08T08:00:19.705Z,8.57
2022-11-08T08:04:21.397Z,9.87
2022-11-08T08:08:23.201Z,10.10
2022-11-08T08:12:24.904Z,10.70
2022-11-08T08:16:26.566Z,12.13
2022-11-08T08:20:29.621Z,11.00
2022-11-08T08:24:31.382Z,20.37
2022-11-08T08:28:33.277Z,12.40
2022-11-08T08:32:35.038Z,11.07
2022-11-08T08:36:36.775Z,9.37
2022-11-08T08:40:38.679Z,10.80
2022-11-08T08:44:40.329Z,15.10
2022-11-08T08:48:42.059Z,11.00
2022-11-08T08:52:43.749Z,11.60
2022-11-08T08:56:45.448Z,11.17
2022-11-08T09:05:10.933Z,11.27
2022-11-08T09:09:12.712Z,13.70
2022-11-08T09:13:14.431Z,13.70
2022-11-08T09:17:16.135Z,12.63
2022-11-08T09:21:17.857Z,11.53
2022-11-08T09:25:19.718Z,12.80
2022-11-08T09:29:21.550Z,11.17
2022-11-08T09:33:23.314Z,10.50
2022-11-08T09:37:25.612Z,10.60
2022-11-08T09:41:36.108Z,9.23
2022-11-08T09:45:46.388Z,10.40
2022-11-08T09:50:18.956Z,9.63
2022-11-08T09:54:35.094Z,10.50
2022-11-08T09:59:02.438Z,10.80
2022-11-08T10:03:04.288Z,13.53
2022-11-08T10:07:23.776Z,15.00
2022-11-08T10:11:47.415Z,12.43
2022-11-08T10:15:55.100Z,11.93
2022-11-08T10:20:06.866Z,13.07
2022-11-08T10:24:39.572Z,13.57
2022-11-08T10:28:50.068Z,11.13
2022-11-08T10:32:55.114Z,11.03
2022-11-08T10:37:03.523Z,11.57
2022-11-08T10:41:28.437Z,11.90
2022-11-08T10:45:30.113Z,16.40
2022-11-08T10:49:33.173Z,10.70
2022-11-08T10:53:43.407Z,12.20
2022-11-08T10:57:45.150Z,10.80
2022-11-08T11:01:50.786Z,10.93
2022-11-08T11:06:18.345Z,11.53
2022-11-08T11:10:29.357Z,10.67
2022-11-08T11:14:31.035Z,11.60
2022-11-08T11:18:34.515Z,11.80
2022-11-08T11:22:36.236Z,11.97
2022-11-08T11:26:48.032Z,13.13
2022-11-08T11:31:00.951Z,11.77
2022-11-08T11:35:05.359Z,10.90
2022-11-08T11:39:23.416Z,11.83
2022-11-08T11:43:45.521Z,11.63
2022-11-08T11:47:53.491Z,10.10
2022-11-08T11:51:56.600Z,10.93
2022-11-08T11:56:07.434Z,8.97
2022-11-08T12:00:12.974Z,9.33
2022-11-08T12:04:47.972Z,10.27
2022-11-08T12:09:23.498Z,10.53
2022-11-08T12:14:01.504Z,12.10
2022-11-08T12:18:21.682Z,10.70
2022-11-08T12:22:59.965Z,12.90
2022-11-08T12:27:29.010Z,14.40
2022-11-08T12:31:35.265Z,16.60
2022-11-08T12:35:51.960Z,17.40
2022-11-08T12:40:01.242Z,14.73
2022-11-08T12:44:23.207Z,13.87
2022-11-08T12:48:39.176Z,13.23
2022-11-08T12:53:17.798Z,12.80
2022-11-08T12:57:22.174Z,11.97
2022-11-08T13:01:24.175Z,11.70
2022-11-08T13:05:33.631Z,10.70
2022-11-08T13:09:58.248Z,10.13
2022-11-08T13:14:00.680Z,9.43
2022-11-08T13:18:09.752Z,11.15
2022-11-08T13:22:31.575Z,9.17
2022-11-08T13:26:41.943Z,9.57
2022-11-08T13:30:44.031Z,11.80
2022-11-08T13:34:59.430Z,11.03
2022-11-08T13:39:03.871Z,9.83
2022-11-08T13:43:24.156Z,9.97
2022-11-08T13:47:34.917Z,10.93
2022-11-08T13:51:41.964Z,9.47
2022-11-08T13:55:43.612Z,9.53
2022-11-08T13:59:45.658Z,9.67
2022-11-08T14:03:47.401Z,8.20
2022-11-08T14:08:14.838Z,8.80
2022-11-08T14:12:43.806Z,8.87
2022-11-08T14:17:01.177Z,7.33
2022-11-08T14:21:04.976Z,8.80
2022-11-08T14:25:14.655Z,8.30
2022-11-08T14:29:18.955Z,7.97
2022-11-08T14:33:22.030Z,8.23
2022-11-08T14:37:27.216Z,9.83
2022-11-08T14:41:30.532Z,9.37
2022-11-08T14:45:32.398Z,8.80
2022-11-08T14:49:36.556Z,9.83
2022-11-08T14:53:50.579Z,9.60
2022-11-08T14:57:52.341Z,10.50
2022-11-08T15:01:54.068Z,10.93
2022-11-08T15:05:59.423Z,11.40
2022-11-08T15:10:10.091Z,10.73
2022-11-08T15:14:19.076Z,10.13
2022-11-08T15:18:38.560Z,11.90
2022-11-08T15:22:40.480Z,12.93
2022-11-08T15:27:05.869Z,11.77
2022-11-08T15:31:13.266Z,11.57
2022-11-08T15:35:22.979Z,11.83
2022-11-08T15:39:32.282Z,11.83
2022-11-08T15:43:38.868Z,11.93
2022-11-08T15:47:46.221Z,11.63
2022-11-08T15:51:49.840Z,11.93
2022-11-08T15:55:56.885Z,11.13
2022-11-08T15:59:58.835Z,10.20
2022-11-08T16:04:00.484Z,10.87
2022-11-08T16:08:02.197Z,11.80
2022-11-08T16:12:04.304Z,12.97
2022-11-08T16:16:15.187Z,15.00
2022-11-08T16:20:27.824Z,13.30
2022-11-08T16:24:29.517Z,13.20
2022-11-08T16:28:36.226Z,11.77
2022-11-08T16:32:37.941Z,14.57
2022-11-08T16:36:39.665Z,15.17
2022-11-08T16:40:41.951Z,17.60
2022-11-08T16:44:44.344Z,17.63
2022-11-08T16:48:49.306Z,18.10
2022-11-08T16:52:51.868Z,17.63
2022-11-08T16:57:13.674Z,16.07
2022-11-08T17:01:27.007Z,16.70
2022-11-08T17:05:28.756Z,15.87
2022-11-08T17:09:30.594Z,13.37
2022-11-08T17:13:37.505Z,12.90
2022-11-08T17:17:43.141Z,14.80
2022-11-08T17:21:45.859Z,13.10
2022-11-08T17:25:47.757Z,12.63
2022-11-08T17:29:49.411Z,13.30
2022-11-08T17:33:51.238Z,12.33
2022-11-08T17:37:53.723Z,19.00
2022-11-08T17:41:55.470Z,16.50
2022-11-08T17:45:58.396Z,19.80
2022-11-08T17:50:00.091Z,13.97
2022-11-08T17:54:04.570Z,11.73
2022-11-08T17:58:06.450Z,10.30
2022-11-08T18:02:09.277Z,6.77
2022-11-08T18:06:14.412Z,7.53
2022-11-08T18:10:16.529Z,5.10
2022-11-08T18:14:27.067Z,5.10
2022-11-08T18:18:30.064Z,5.70
2022-11-08T18:22:32.874Z,10.33
2022-11-08T18:26:34.753Z,11.20
2022-11-08T18:30:36.637Z,10.73
2022-11-08T18:34:38.444Z,13.93
2022-11-08T18:38:41.975Z,17.67
2022-11-08T18:42:43.655Z,20.20
2022-11-08T18:46:45.406Z,20.17
2022-11-08T18:50:50.821Z,20.13
2022-11-08T18:54:52.522Z,15.87
2022-11-08T18:58:54.378Z,14.33
2022-11-08T19:02:56.022Z,11.83
2022-11-08T19:06:57.759Z,11.80
2022-11-08T19:11:03.105Z,14.07
2022-11-08T19:15:05.087Z,13.63
2022-11-08T19:19:06.832Z,13.53
2022-11-08T19:23:08.553Z,13.77
2022-11-08T19:27:10.456Z,13.67
2022-11-08T19:31:14.027Z,19.10
2022-11-08T19:35:24.628Z,19.77
2022-11-08T19:39:26.452Z,14.67
2022-11-08T19:43:28.185Z,21.17
2022-11-08T19:47:29.863Z,18.20
2022-11-08T19:51:36.844Z,21.40
2022-11-08T19:55:38.674Z,25.97
2022-11-08T19:59:40.319Z,27.83
2022-11-08T20:03:42.256Z,26.50
2022-11-08T20:07:49.593Z,19.30
2022-11-08T20:11:51.504Z,24.33
2022-11-08T20:15:54.544Z,24.07
2022-11-08T20:19:56.291Z,28.27
2022-11-08T20:23:58.408Z,30.50
2022-11-08T20:28:02.715Z,26.60
2022-11-08T20:32:04.653Z,20.83
2022-11-08T20:36:11.638Z,15.20
2022-11-08T20:40:14.293Z,14.97
2022-11-08T20:44:16.474Z,16.23
2022-11-08T20:48:18.370Z,37.70
2022-11-08T20:52:22.507Z,39.27
2022-11-08T20:56:25.339Z,40.07
2022-11-08T21:00:52.105Z,27.63
2022-11-08T21:04:48.991Z,27.27
2022-11-08T21:09:01.826Z,24.23
2022-11-08T21:13:05.055Z,28.67
2022-11-08T21:17:21.488Z,20.97
2022-11-08T21:21:29.525Z,10.63
2022-11-08T21:25:32.262Z,8.20
2022-11-08T21:29:34.396Z,19.57
2022-11-08T21:33:36.460Z,21.47
2022-11-08T21:37:38.162Z,22.90
2022-11-08T21:41:40.028Z,28.00
2022-11-08T21:45:41.979Z,30.47
2022-11-08T21:49:43.688Z,27.67
2022-11-08T21:53:54.023Z,25.37
2022-11-08T21:57:56.601Z,27.97
2022-11-08T22:01:58.580Z,27.73
2022-11-08T22:06:00.356Z,27.63
2022-11-08T22:10:02.097Z,25.47
2022-11-08T22:14:04.088Z,24.23
2022-11-08T22:18:15.366Z,25.13
2022-11-08T22:22:19.260Z,25.70
2022-11-08T22:26:21.001Z,26.30
2022-11-08T22:30:22.684Z,26.10
2022-11-08T22:34:24.525Z,52.37
2022-11-08T22:38:27.657Z,49.50
2022-11-08T22:42:29.540Z,42.30
2022-11-08T22:46:31.433Z,28.27
2022-11-08T22:50:33.533Z,23.87
2022-11-08T22:54:35.316Z,20.53
2022-11-08T22:58:42.280Z,18.10
2022-11-08T23:02:46.082Z,17.30
2022-11-08T23:06:47.814Z,17.50
2022-11-08T23:11:08.379Z,17.43
2022-11-08T23:15:29.268Z,17.27
2022-11-08T23:19:49.424Z,15.23
2022-11-08T23:24:09.652Z,15.47
2022-11-08T23:28:32.845Z,14.17
2022-11-08T23:32:35.090Z,14.73
2022-11-08T23:36:36.833Z,16.67
2022-11-08T23:40:57.165Z,14.80
2022-11-08T23:44:58.844Z,15.90
2022-11-08T23:49:01.907Z,14.27
2022-11-08T23:53:03.678Z,15.23
2022-11-08T23:57:05.910Z,14.90
